createdAt,value
2023-05-03T00:02:15.380Z,23.82
2023-05-03T00:04:42.012Z,23.81
2023-05-03T00:07:08.600Z,23.84
2023-05-03T00:09:35.142Z,23.87
2023-05-03T00:12:01.730Z,23.87
2023-05-03T00:14:28.274Z,23.85
2023-05-03T00:16:54.824Z,23.87
2023-05-03T00:19:31.101Z,23.89
2023-05-03T00:21:58.475Z,23.88
2023-05-03T00:24:25.018Z,23.87
2023-05-03T00:26:51.577Z,23.84
2023-05-03T00:29:18.106Z,23.84
2023-05-03T00:31:44.624Z,23.84
2023-05-03T00:34:11.178Z,23.83
2023-05-03T00:36:37.760Z,23.81
2023-05-03T00:39:04.303Z,23.81
2023-05-03T00:41:30.857Z,23.80
2023-05-03T00:43:57.392Z,23.80
2023-05-03T00:46:23.981Z,23.78
2023-05-03T00:48:50.612Z,23.78
2023-05-03T00:51:17.206Z,23.79
2023-05-03T00:53:43.761Z,23.76
2023-05-03T00:56:10.320Z,23.79
2023-05-03T00:58:36.898Z,23.78
2023-05-03T01:01:03.696Z,23.78
2023-05-03T05:06:08.677Z,23.29
2023-05-03T05:08:35.221Z,23.29
2023-05-03T05:11:01.745Z,23.28
2023-05-03T05:13:28.286Z,23.28
2023-05-03T05:15:54.834Z,23.28
2023-05-03T05:18:21.419Z,23.27
2023-05-03T05:20:47.996Z,23.27
2023-05-03T05:23:14.557Z,23.27
2023-05-03T05:25:41.089Z,23.27
2023-05-03T05:28:07.634Z,23.26
2023-05-03T05:30:34.272Z,23.26
2023-05-03T05:33:01.121Z,23.26
2023-05-03T05:35:27.675Z,23.25
2023-05-03T05:37:54.257Z,23.25
2023-05-03T05:40:20.850Z,23.26
2023-05-03T05:42:47.413Z,23.29
2023-05-03T05:45:13.940Z,23.28
2023-05-03T05:47:40.519Z,23.26
2023-05-03T05:50:16.728Z,23.28
2023-05-03T05:52:44.970Z,23.29
2023-05-03T05:55:11.528Z,23.30
2023-05-03T05:57:38.054Z,23.30
2023-05-03T06:00:04.770Z,23.25
2023-05-03T06:02:31.635Z,23.21
2023-05-03T06:04:58.238Z,23.19
2023-05-03T06:07:24.797Z,23.22
2023-05-03T06:09:51.353Z,23.25
2023-05-03T06:12:17.902Z,23.25
2023-05-03T06:14:55.458Z,23.24
2023-05-03T06:17:28.349Z,23.23
2023-05-03T06:19:54.916Z,23.23
2023-05-03T06:22:21.468Z,23.25
2023-05-03T06:24:48.012Z,23.26
2023-05-03T06:27:14.548Z,23.23
2023-05-03T06:29:41.111Z,23.25
2023-05-03T06:32:07.827Z,23.27
2023-05-03T06:34:34.394Z,23.29
2023-05-03T06:37:00.961Z,23.30
2023-05-03T06:39:27.490Z,23.33
2023-05-03T06:41:54.032Z,23.33
2023-05-03T06:44:20.579Z,23.32
2023-05-03T06:46:47.177Z,23.32
2023-05-03T06:49:13.831Z,23.36
2023-05-03T06:51:40.376Z,23.38
2023-05-03T06:54:06.957Z,23.41
2023-05-03T06:56:33.533Z,23.38
2023-05-03T06:59:00.113Z,23.32
2023-05-03T07:01:26.708Z,23.32
2023-05-03T07:03:53.424Z,23.32
2023-05-03T07:06:20.060Z,23.31
2023-05-03T07:08:46.620Z,23.30
2023-05-03T07:11:13.188Z,23.29
2023-05-03T07:13:39.780Z,23.27
2023-05-03T07:16:06.343Z,23.23
2023-05-03T07:18:32.928Z,23.30
2023-05-03T07:20:59.459Z,23.31
2023-05-03T07:23:25.988Z,23.33
2023-05-03T07:25:52.536Z,23.34
2023-05-03T07:28:19.083Z,23.36
2023-05-03T07:30:45.630Z,23.36
2023-05-03T07:33:12.315Z,23.33
2023-05-03T07:35:38.943Z,23.33
2023-05-03T07:38:05.487Z,23.31
2023-05-03T07:40:32.011Z,23.29
2023-05-03T07:42:58.586Z,23.30
2023-05-03T07:45:25.137Z,23.28
2023-05-03T07:47:51.908Z,23.28
2023-05-03T07:50:18.546Z,23.25
2023-05-03T07:52:45.096Z,23.29
2023-05-03T07:55:11.670Z,23.33
2023-05-03T07:57:38.227Z,23.29
2023-05-03T08:00:05.052Z,23.28
2023-05-03T08:02:32.205Z,23.26
2023-05-03T08:04:59.045Z,23.24
2023-05-03T08:07:25.808Z,23.25
2023-05-03T08:09:52.349Z,23.29
2023-05-03T08:12:18.903Z,23.32
2023-05-03T08:14:45.479Z,23.33
2023-05-03T08:17:12.018Z,23.35
2023-05-03T08:19:38.605Z,23.36
2023-05-03T08:22:05.155Z,23.38
2023-05-03T08:24:31.692Z,23.40
2023-05-03T08:26:58.227Z,23.38
2023-05-03T08:29:27.020Z,23.40
2023-05-03T08:31:54.232Z,23.38
2023-05-03T08:34:20.849Z,23.41
2023-05-03T08:36:47.392Z,23.42
2023-05-03T08:39:13.936Z,23.46
2023-05-03T08:41:40.487Z,23.47
2023-05-03T08:44:07.044Z,23.47
2023-05-03T08:46:33.621Z,23.46
2023-05-03T08:49:00.219Z,23.43
2023-05-03T08:51:26.779Z,23.42
2023-05-03T08:53:53.335Z,23.41
2023-05-03T08:56:19.886Z,23.41
2023-05-03T08:58:46.439Z,23.41
2023-05-03T09:01:12.969Z,23.39
2023-05-03T09:03:39.709Z,23.37
2023-05-03T09:06:06.484Z,23.36
2023-05-03T09:08:33.046Z,23.39
2023-05-03T09:10:59.609Z,23.41
2023-05-03T09:13:26.149Z,23.41
2023-05-03T09:15:54.366Z,23.42
2023-05-03T09:18:21.099Z,23.41
2023-05-03T09:20:47.688Z,23.44
2023-05-03T09:23:14.223Z,23.46
2023-05-03T09:25:40.775Z,23.46
2023-05-03T09:28:07.324Z,23.46
2023-05-03T09:30:33.863Z,23.48
2023-05-03T09:33:00.458Z,23.49
2023-05-03T09:35:27.016Z,23.49
2023-05-03T09:37:53.569Z,23.51
2023-05-03T09:40:20.118Z,23.54
2023-05-03T09:42:46.705Z,23.55
2023-05-03T09:45:13.271Z,23.53
2023-05-03T09:47:39.855Z,23.53
2023-05-03T09:50:06.456Z,23.54
2023-05-03T09:52:33.013Z,23.51
2023-05-03T09:54:59.545Z,23.51
2023-05-03T09:57:26.123Z,23.52
2023-05-03T09:59:52.666Z,23.34
2023-05-03T10:02:19.241Z,23.16
2023-05-03T10:04:45.862Z,23.21
2023-05-03T10:07:12.669Z,23.31
2023-05-03T10:09:39.317Z,23.35
2023-05-03T10:12:05.865Z,23.40
2023-05-03T10:14:32.403Z,23.44
2023-05-03T10:16:58.944Z,23.48
2023-05-03T10:19:25.475Z,23.50
2023-05-03T10:21:52.034Z,23.51
2023-05-03T10:24:18.580Z,23.52
2023-05-03T10:26:45.132Z,23.52
2023-05-03T10:29:11.673Z,23.52
2023-05-03T10:31:38.258Z,23.53
2023-05-03T10:34:04.835Z,23.55
2023-05-03T10:36:45.900Z,23.59
2023-05-03T10:39:15.804Z,23.60
2023-05-03T10:41:42.343Z,23.62
2023-05-03T10:44:08.882Z,23.64
2023-05-03T10:46:35.477Z,23.65
2023-05-03T10:49:02.102Z,23.65
2023-05-03T10:51:28.663Z,23.65
2023-05-03T10:53:55.218Z,23.63
2023-05-03T10:56:21.791Z,23.62
2023-05-03T10:58:48.339Z,23.61
2023-05-03T11:01:14.897Z,23.62
2023-05-03T11:03:41.574Z,23.63
2023-05-03T11:06:08.184Z,23.61
2023-05-03T11:08:34.737Z,23.61
2023-05-03T11:11:01.280Z,23.62
2023-05-03T11:13:27.838Z,23.62
2023-05-03T11:15:54.446Z,23.61
2023-05-03T11:18:21.011Z,23.61
2023-05-03T11:20:47.547Z,23.63
2023-05-03T11:23:14.108Z,23.63
2023-05-03T11:25:40.698Z,23.61
2023-05-03T11:28:07.264Z,23.62
2023-05-03T11:30:33.849Z,23.62
2023-05-03T11:33:00.440Z,23.64
2023-05-03T11:35:27.083Z,23.63
2023-05-03T11:37:53.621Z,23.64
2023-05-03T11:40:20.228Z,23.70
2023-05-03T11:42:46.794Z,23.72
2023-05-03T11:45:13.331Z,23.75
2023-05-03T11:47:39.946Z,23.79
2023-05-03T11:50:06.524Z,23.84
2023-05-03T11:52:33.102Z,23.87
2023-05-03T11:54:59.648Z,23.88
2023-05-03T11:57:26.199Z,23.87
2023-05-03T11:59:52.782Z,23.89
2023-05-03T12:02:19.416Z,23.88
2023-05-03T12:04:46.620Z,23.85
2023-05-03T12:07:14.049Z,23.83
2023-05-03T12:09:44.463Z,23.83
2023-05-03T12:12:14.705Z,23.80
2023-05-03T12:14:42.814Z,23.80
2023-05-03T12:17:11.345Z,23.83
2023-05-03T12:19:38.862Z,23.81
2023-05-03T12:22:23.463Z,23.85
2023-05-03T12:24:53.444Z,23.81
2023-05-03T12:27:21.977Z,23.89
2023-05-03T12:29:51.646Z,23.88
2023-05-03T12:32:18.542Z,23.91
2023-05-03T12:34:46.935Z,23.86
2023-05-03T12:37:16.950Z,23.84
2023-05-03T12:39:46.110Z,23.86
2023-05-03T12:42:20.386Z,23.88
2023-05-03T12:44:48.551Z,23.89
2023-05-03T12:47:16.880Z,23.91
2023-05-03T12:49:53.243Z,23.94
2023-05-03T12:52:37.091Z,23.94
2023-05-03T12:55:05.032Z,23.94
2023-05-03T12:57:37.254Z,23.97
2023-05-03T13:00:04.706Z,24.00
2023-05-03T13:05:01.684Z,23.96
2023-05-03T13:07:30.075Z,23.96
2023-05-03T13:12:27.482Z,23.99
2023-05-03T13:14:54.018Z,23.99
2023-05-03T13:17:20.559Z,23.98
2023-05-03T13:19:47.159Z,23.99
2023-05-03T13:22:13.736Z,24.00
2023-05-03T13:24:40.306Z,23.99
2023-05-03T13:27:06.879Z,23.97
2023-05-03T13:29:33.435Z,24.01
2023-05-03T13:32:00.190Z,24.00
2023-05-03T13:34:26.815Z,24.05
2023-05-03T13:36:53.374Z,24.06
2023-05-03T13:39:19.924Z,24.07
2023-05-03T13:41:48.100Z,24.05
2023-05-03T13:44:14.809Z,24.04
2023-05-03T13:46:41.467Z,24.05
2023-05-03T13:49:08.207Z,24.02
2023-05-03T13:51:34.906Z,24.06
2023-05-03T13:54:01.517Z,24.06
2023-05-03T13:56:28.110Z,24.07
2023-05-03T13:58:54.661Z,24.01
2023-05-03T14:01:21.272Z,23.99
2023-05-03T14:03:47.896Z,24.01
2023-05-03T14:06:14.494Z,24.03
2023-05-03T14:08:41.052Z,24.07
2023-05-03T14:11:07.599Z,24.09
2023-05-03T14:13:47.534Z,24.08
2023-05-03T14:16:35.920Z,24.06
2023-05-03T14:19:06.344Z,24.06
2023-05-03T14:21:32.938Z,24.07
2023-05-03T14:23:59.476Z,24.07
2023-05-03T14:26:26.029Z,24.10
2023-05-03T14:28:52.584Z,24.15
2023-05-03T14:31:19.124Z,24.06
2023-05-03T14:33:45.672Z,24.09
2023-05-03T14:36:12.238Z,24.14
2023-05-03T14:38:38.772Z,24.18
2023-05-03T14:41:05.306Z,24.14
2023-05-03T14:43:31.855Z,24.13
2023-05-03T14:45:58.402Z,24.13
2023-05-03T14:48:24.928Z,24.15
2023-05-03T14:50:51.495Z,24.18
2023-05-03T14:53:18.078Z,24.18
2023-05-03T14:55:44.627Z,24.18
2023-05-03T14:58:11.184Z,24.18
2023-05-03T15:00:37.756Z,24.20
2023-05-03T15:03:04.439Z,24.19
2023-05-03T15:05:31.117Z,24.20
2023-05-03T15:07:57.641Z,24.21
2023-05-03T15:10:24.168Z,24.23
2023-05-03T15:12:50.762Z,24.24
2023-05-03T15:15:17.359Z,24.24
2023-05-03T15:17:43.962Z,24.25
2023-05-03T15:20:10.532Z,24.26
2023-05-03T15:22:37.164Z,24.25
2023-05-03T15:25:03.729Z,24.25
2023-05-03T15:27:30.268Z,24.24
2023-05-03T15:29:56.853Z,24.24
2023-05-03T15:32:23.427Z,24.24
2023-05-03T15:34:49.957Z,24.23
2023-05-03T15:37:16.496Z,24.24
2023-05-03T15:39:43.088Z,24.23
2023-05-03T15:42:09.629Z,24.24
2023-05-03T15:44:36.165Z,24.27
2023-05-03T15:47:02.699Z,24.27
2023-05-03T15:49:29.277Z,24.28
2023-05-03T15:51:55.816Z,24.30
2023-05-03T15:54:22.367Z,24.32
2023-05-03T15:56:48.977Z,24.30
2023-05-03T15:59:15.564Z,24.33
2023-05-03T16:01:42.245Z,24.33
2023-05-03T16:04:08.837Z,24.32
2023-05-03T16:06:35.430Z,24.33
2023-05-03T16:09:02.020Z,24.34
2023-05-03T16:11:28.556Z,24.34
2023-05-03T16:13:55.112Z,24.40
2023-05-03T16:16:21.678Z,24.43
2023-05-03T16:18:48.283Z,24.46
2023-05-03T16:21:14.835Z,24.48
2023-05-03T16:23:41.356Z,24.48
2023-05-03T16:26:07.908Z,24.50
2023-05-03T16:28:34.460Z,24.58
2023-05-03T16:31:01.034Z,24.56
2023-05-03T16:33:27.595Z,24.54
2023-05-03T16:35:54.159Z,24.53
2023-05-03T16:38:20.685Z,24.55
2023-05-03T16:40:47.236Z,24.54
2023-05-03T16:43:13.773Z,24.53
2023-05-03T16:45:40.373Z,24.55
2023-05-03T16:48:08.331Z,24.55
2023-05-03T16:50:36.924Z,24.56
2023-05-03T16:53:03.478Z,24.54
2023-05-03T16:55:30.053Z,24.52
2023-05-03T16:57:56.583Z,24.50
2023-05-03T17:00:23.128Z,24.49
2023-05-03T17:02:49.819Z,24.54
2023-05-03T17:05:16.774Z,24.59
2023-05-03T17:07:43.367Z,24.61
2023-05-03T17:10:09.934Z,24.64
2023-05-03T17:12:36.549Z,24.65
2023-05-03T17:15:03.162Z,24.67
2023-05-03T17:17:29.929Z,24.69
2023-05-03T17:19:56.552Z,24.70
2023-05-03T17:22:23.096Z,24.70
2023-05-03T17:24:49.661Z,24.71
2023-05-03T17:27:16.214Z,24.72
2023-05-03T17:29:42.751Z,24.73
2023-05-03T17:32:09.269Z,24.69
2023-05-03T17:34:35.812Z,24.71
2023-05-03T17:37:02.354Z,24.73
2023-05-03T17:39:28.913Z,24.72
2023-05-03T17:41:55.462Z,24.72
2023-05-03T17:44:22.011Z,24.68
2023-05-03T17:46:48.612Z,24.69
2023-05-03T17:49:15.154Z,24.72
2023-05-03T17:51:41.711Z,24.71
2023-05-03T17:54:08.278Z,24.71
2023-05-03T17:56:34.808Z,24.69
2023-05-03T17:59:01.375Z,24.69
2023-05-03T18:01:27.955Z,24.72
2023-05-03T18:03:54.598Z,24.73
2023-05-03T18:06:21.205Z,24.74
2023-05-03T18:08:47.756Z,24.72
2023-05-03T18:11:14.281Z,24.72
2023-05-03T18:13:40.814Z,24.70
2023-05-03T18:16:07.378Z,24.68
2023-05-03T18:18:33.985Z,24.68
2023-05-03T18:21:00.539Z,24.68
2023-05-03T18:23:27.090Z,24.67
2023-05-03T18:25:53.643Z,24.67
2023-05-03T18:28:20.198Z,24.63
2023-05-03T18:30:46.750Z,24.69
2023-05-03T18:33:13.318Z,24.74
2023-05-03T18:35:39.880Z,24.68
2023-05-03T18:38:06.421Z,24.66
2023-05-03T18:40:32.976Z,24.63
2023-05-03T18:42:59.537Z,24.63
2023-05-03T18:45:26.078Z,24.65
2023-05-03T18:47:52.691Z,24.62
2023-05-03T18:50:19.248Z,24.61
2023-05-03T18:52:45.844Z,24.62
2023-05-03T18:55:12.405Z,24.60
2023-05-03T18:57:38.956Z,24.61
2023-05-03T19:00:05.516Z,24.61
2023-05-03T19:02:32.066Z,24.60
2023-05-03T19:04:58.656Z,24.58
2023-05-03T19:07:25.340Z,24.58
2023-05-03T19:09:51.909Z,24.58
2023-05-03T19:12:18.472Z,24.59
2023-05-03T19:14:45.036Z,24.50
2023-05-03T19:17:11.587Z,24.52
2023-05-03T19:19:38.145Z,24.51
2023-05-03T19:22:04.690Z,24.52
2023-05-03T19:24:31.221Z,24.53
2023-05-03T19:26:57.788Z,24.58
2023-05-03T19:29:24.343Z,24.65
2023-05-03T19:31:50.903Z,24.68
2023-05-03T19:34:17.448Z,24.70
2023-05-03T19:36:44.000Z,24.72
2023-05-03T19:39:10.560Z,24.72
2023-05-03T19:41:37.110Z,24.72
2023-05-03T19:44:03.666Z,24.73
2023-05-03T19:46:30.254Z,24.71
2023-05-03T19:48:56.828Z,24.69
2023-05-03T19:51:23.380Z,24.69
2023-05-03T19:53:49.917Z,24.68
2023-05-03T19:56:16.467Z,24.67
2023-05-03T19:58:43.018Z,24.65
2023-05-03T20:01:09.626Z,24.66
2023-05-03T20:03:36.289Z,24.65
2023-05-03T20:06:02.880Z,24.62
2023-05-03T20:08:29.443Z,24.64
2023-05-03T20:10:56.004Z,24.63
2023-05-03T20:13:22.555Z,24.60
2023-05-03T20:15:49.121Z,24.59
2023-05-03T20:18:15.691Z,24.60
2023-05-03T20:20:42.222Z,24.60
2023-05-03T20:23:08.776Z,24.58
2023-05-03T20:25:35.318Z,24.59
2023-05-03T20:28:01.885Z,24.60
2023-05-03T20:30:28.493Z,24.57
2023-05-03T20:32:55.207Z,24.56
2023-05-03T20:35:21.795Z,24.57
2023-05-03T20:37:48.348Z,24.57
2023-05-03T20:40:14.903Z,24.58
2023-05-03T20:42:41.467Z,24.55
2023-05-03T20:45:08.023Z,24.51
2023-05-03T20:47:34.552Z,24.45
2023-05-03T20:50:01.119Z,24.37
2023-05-03T20:52:27.683Z,24.33
2023-05-03T20:54:54.225Z,24.31
2023-05-03T20:57:20.744Z,24.26
2023-05-03T20:59:47.314Z,24.27
2023-05-03T21:02:13.857Z,24.30
2023-05-03T21:04:40.448Z,24.33
2023-05-03T21:07:07.016Z,24.32
2023-05-03T21:09:33.563Z,24.31
2023-05-03T21:12:00.130Z,24.36
2023-05-03T21:14:26.725Z,24.47
2023-05-03T21:16:53.291Z,24.50
2023-05-03T21:19:19.867Z,24.48
2023-05-03T21:21:46.434Z,24.40
2023-05-03T21:24:12.992Z,24.38
2023-05-03T21:26:39.554Z,24.34
2023-05-03T21:29:06.100Z,24.32
2023-05-03T21:31:32.678Z,24.38
2023-05-03T21:33:59.270Z,24.44
2023-05-03T21:36:25.855Z,24.40
2023-05-03T21:38:53.101Z,24.33
2023-05-03T21:41:19.805Z,24.30
2023-05-03T21:43:46.348Z,24.29
2023-05-03T21:46:12.902Z,24.28
2023-05-03T21:48:39.476Z,24.25
2023-05-03T21:51:06.022Z,24.24
2023-05-03T21:53:32.590Z,24.23
2023-05-03T21:55:59.134Z,24.22
2023-05-03T21:58:25.696Z,24.21
2023-05-03T22:00:52.264Z,24.23
2023-05-03T22:03:18.948Z,24.23
2023-05-03T22:05:45.650Z,24.22
2023-05-03T22:08:12.230Z,24.19
2023-05-03T22:10:38.780Z,24.19
2023-05-03T22:13:05.453Z,24.20
2023-05-03T22:15:32.016Z,24.20
2023-05-03T22:17:58.605Z,24.20
2023-05-03T22:20:25.179Z,24.19
2023-05-03T22:22:51.722Z,24.18
2023-05-03T22:25:18.271Z,24.18
2023-05-03T22:27:44.825Z,24.19
2023-05-03T22:30:11.538Z,24.18
2023-05-03T22:32:38.127Z,24.16
2023-05-03T22:35:04.659Z,24.14
2023-05-03T22:37:31.221Z,24.14
2023-05-03T22:39:57.775Z,24.13
2023-05-03T22:42:24.335Z,24.11
2023-05-03T22:44:50.926Z,24.10
2023-05-03T22:47:17.463Z,24.10
2023-05-03T22:49:44.011Z,24.07
2023-05-03T22:52:10.547Z,24.08
2023-05-03T22:54:37.108Z,24.06
2023-05-03T22:57:03.687Z,24.06
2023-05-03T22:59:30.251Z,24.06
2023-05-03T23:01:56.867Z,24.06
2023-05-03T23:04:23.439Z,24.06
2023-05-03T23:06:49.980Z,24.05
2023-05-03T23:09:16.527Z,24.05
2023-05-03T23:11:43.063Z,24.06
2023-05-03T23:14:09.616Z,24.05
2023-05-03T23:16:36.246Z,24.06
2023-05-03T23:19:02.850Z,24.06
2023-05-03T23:21:29.375Z,24.06
2023-05-03T23:23:55.923Z,24.06
2023-05-03T23:26:22.458Z,24.04
2023-05-03T23:28:49.495Z,24.03
2023-05-03T23:31:16.491Z,24.03
2023-05-03T23:33:43.586Z,24.02
2023-05-03T23:36:10.109Z,24.00
2023-05-03T23:38:36.680Z,24.01
2023-05-03T23:41:03.270Z,24.00
2023-05-03T23:43:29.846Z,23.99
2023-05-03T23:45:56.446Z,24.00
2023-05-03T23:48:23.026Z,23.99
2023-05-03T23:50:49.580Z,23.99
2023-05-03T23:53:16.127Z,23.99
2023-05-03T23:55:42.683Z,23.99
2023-05-03T23:58:09.212Z,23.99
